Climatologie pour Saint-Brevin les Pins
Jour • Résumé pour juillet 15, 2017 Système :  Métrique    Anglais   Mixte
« - 1 jour
+ 1 jour »
Jour Semaine Mois Année Personnalisé
  Maximum : Minimum : Moyenne :
Température sous abri : -17.8 °C -11.6 °C -7.6 °C
Point de rosée : -17.8 °C -12.1 °C -10.2 °C
Humidité : Humidity % 48 % 75 %
Vitesse du vent : 0 km/h 0 km/h 7.6 km/h
Rafale : 0 km/h - -
Direction :- - South
Pression : 0 hPa 34659.1 hPa -
Précipitations : 0 mm    
Historical Graphs
 
 
Tableau de données pour juillet 15, 2017
Heure Tempé Pt rosée Pression Vent Vitesse Rafale Humidité Taux pluie (/hr) Soleil
-17.8 °C -17.8 °C 0 hPa Calm     Humidity % 0 mm SolarRadiationWatts/m^2 W/m2 Conditions
00:00 -8.4 °C -10.6 °C 34682.8 hPa North 2.6 km/h 25.9 km/h 78 % 0 mm 0 W/m2
00:10 -8.6 °C -10.7 °C 34682.8 hPa NNE 7.7 km/h 25.9 km/h 78 % 0 mm 0 W/m2
00:15 -8.6 °C -10.7 °C 34693 hPa Calm   25.9 km/h 78 % 0 mm 0 W/m2
00:20 -8.6 °C -10.8 °C 34693 hPa NNE 5.1 km/h 20.8 km/h 78 % 0 mm 0 W/m2
00:25 -8.7 °C -10.8 °C 34693 hPa NE 12.9 km/h 20.8 km/h 78 % 0 mm 0 W/m2
00:30 -8.8 °C -10.8 °C 34693 hPa North 7.7 km/h 20.8 km/h 79 % 0 mm 0 W/m2
00:35 -8.8 °C -10.8 °C 34693 hPa North 2.6 km/h 25.9 km/h 79 % 0 mm 0 W/m2
00:40 -8.9 °C -10.9 °C 34693 hPa NE 10.3 km/h 25.9 km/h 79 % 0 mm 0 W/m2
00:50 -9 °C -10.9 °C 34693 hPa NE 15.6 km/h 18.2 km/h 80 % 0 mm 0 W/m2
00:55 -9.1 °C -11 °C 34693 hPa Calm   18.2 km/h 80 % 0 mm 0 W/m2
01:00 -9.1 °C -10.9 °C 34693 hPa NE 12.9 km/h 20.8 km/h 81 % 0 mm 0 W/m2
01:05 -9.2 °C -11.1 °C 34693 hPa NNE 7.7 km/h 20.8 km/h 81 % 0 mm 0 W/m2
01:10 -9.2 °C -10.9 °C 34693 hPa Calm   20.8 km/h 82 % 0 mm 0 W/m2
01:15 -9.3 °C -10.9 °C 34693 hPa NNE 7.7 km/h 20.8 km/h 82 % 0 mm 0 W/m2
01:20 -9.3 °C -11.1 °C 34693 hPa NE 7.7 km/h 20.8 km/h 82 % 0 mm 0 W/m2
01:25 -9.4 °C -11.1 °C 34693 hPa North 5.1 km/h 20.8 km/h 82 % 0 mm 0 W/m2
01:35 -9.4 °C -11.1 °C 34693 hPa NNE 5.1 km/h 20.8 km/h 83 % 0 mm 0 W/m2
01:40 -9.5 °C -11.1 °C 34693 hPa NNE 5.1 km/h 15.6 km/h 83 % 0 mm 0 W/m2
01:45 -9.6 °C -11.2 °C 34693 hPa NE 2.6 km/h 18.2 km/h 83 % 0 mm 0 W/m2
01:55 -9.7 °C -11.2 °C 34693 hPa NNE 10.3 km/h 20.8 km/h 84 % 0 mm 0 W/m2
02:00 -9.6 °C -11.1 °C 34693 hPa NNE 5.1 km/h 23.3 km/h 84 % 0 mm 0 W/m2
02:05 -9.6 °C -11.2 °C 34693 hPa NNE 12.9 km/h 23.3 km/h 83 % 0 mm 0 W/m2
02:10 -9.7 °C -11.2 °C 34693 hPa NNE 2.6 km/h 20.8 km/h 83 % 0 mm 0 W/m2
02:20 -9.7 °C -11.2 °C 34693 hPa Calm   20.8 km/h 84 % 0 mm 0 W/m2
02:30 -9.9 °C -11.3 °C 34693 hPa North 2.6 km/h 18.2 km/h 84 % 0 mm 0 W/m2
02:35 -9.9 °C -11.3 °C 34693 hPa NNE 2.6 km/h 15.6 km/h 85 % 0 mm 0 W/m2
02:40 -10 °C -11.3 °C 34693 hPa Calm   12.9 km/h 86 % 0 mm 0 W/m2
02:45 -10.1 °C -11.3 °C 34693 hPa ENE 2.6 km/h 12.9 km/h 86 % 0 mm 0 W/m2
02:50 -10 °C -11.3 °C 34693 hPa NE 5.1 km/h 12.9 km/h 86 % 0 mm 0 W/m2
02:55 -10.1 °C -11.3 °C 34693 hPa ENE 2.6 km/h 10.3 km/h 86 % 0 mm 0 W/m2
03:05 -10.2 °C -11.5 °C 34693 hPa Calm   12.9 km/h 86 % 0 mm 0 W/m2
03:10 -10.3 °C -11.5 °C 34682.8 hPa NE 2.6 km/h 7.7 km/h 87 % 0 mm 0 W/m2
03:15 -10.4 °C -11.6 °C 34682.8 hPa ENE 2.6 km/h 10.3 km/h 87 % 0 mm 0 W/m2
03:20 -10.4 °C -11.5 °C 34682.8 hPa Calm   10.3 km/h 88 % 0 mm 0 W/m2
03:25 -10.5 °C -11.6 °C 34682.8 hPa NNE 2.6 km/h 10.3 km/h 88 % 0 mm 0 W/m2
03:30 -10.5 °C -11.5 °C 34682.8 hPa Calm   10.3 km/h 89 % 0 mm 0 W/m2
03:35 -10.6 °C -11.6 °C 34682.8 hPa North 7.7 km/h 10.3 km/h 89 % 0 mm 0 W/m2
03:40 -10.6 °C -11.6 °C 34682.8 hPa NE 2.6 km/h 12.9 km/h 89 % 0 mm 0 W/m2
03:50 -10.7 °C -11.7 °C 34682.8 hPa NE 5.1 km/h 10.3 km/h 89 % 0 mm 0 W/m2
03:55 -10.8 °C -11.7 °C 34682.8 hPa NE 2.6 km/h 10.3 km/h 90 % 0 mm 0 W/m2
04:00 -10.9 °C -11.8 °C 34682.8 hPa NE 2.6 km/h 7.7 km/h 90 % 0 mm 0 W/m2
04:05 -11 °C -11.8 °C 34682.8 hPa NE 2.6 km/h 7.7 km/h 91 % 0 mm 0 W/m2
04:10 -11.1 °C -11.9 °C 34682.8 hPa NE 5.1 km/h 7.7 km/h 91 % 0 mm 0 W/m2
04:15 -11.1 °C -11.8 °C 34682.8 hPa NE 2.6 km/h 7.7 km/h 92 % 0 mm 0 W/m2
04:20 -11.2 °C -11.8 °C 34682.8 hPa NE 2.6 km/h 7.7 km/h 92 % 0 mm 0 W/m2
04:25 -11.2 °C -11.9 °C 34682.8 hPa NE 2.6 km/h 7.7 km/h 92 % 0 mm 0 W/m2
04:35 -11.2 °C -11.8 °C 34682.8 hPa NE 2.6 km/h 7.7 km/h 93 % 0 mm 0 W/m2
04:40 -11.2 °C -11.9 °C 34682.8 hPa Calm   7.7 km/h 92 % 0 mm 0 W/m2
04:45 -11.2 °C -11.8 °C 34682.8 hPa NNE 2.6 km/h 7.7 km/h 93 % 0 mm 0 W/m2
04:50 -11.2 °C -11.8 °C 34682.8 hPa NNE 2.6 km/h 10.3 km/h 93 % 0 mm 0 W/m2
04:55 -11.2 °C -11.8 °C 34682.8 hPa Calm   10.3 km/h 93 % 0 mm 0 W/m2
05:00 -11.2 °C -11.8 °C 34682.8 hPa Calm   7.7 km/h 93 % 0 mm 0 W/m2
05:05 -11.2 °C -11.8 °C 34682.8 hPa NNE 5.1 km/h 5.1 km/h 93 % 0 mm 0 W/m2
05:10 -11.3 °C -11.9 °C 34682.8 hPa NNE 2.6 km/h 10.3 km/h 93 % 0 mm 0 W/m2
05:20 -11.3 °C -11.8 °C 34682.8 hPa NNE 5.1 km/h 10.3 km/h 94 % 0 mm 0 W/m2
05:25 -11.2 °C -11.7 °C 34682.8 hPa Calm   7.7 km/h 94 % 0 mm 0 W/m2
05:30 -11.2 °C -11.8 °C 34682.8 hPa NNE 7.7 km/h 10.3 km/h 93 % 0 mm 0 W/m2
05:35 -11.2 °C -11.7 °C 34682.8 hPa Calm   10.3 km/h 94 % 0 mm 0 W/m2
05:40 -11.2 °C -11.8 °C 34682.8 hPa NE 7.7 km/h 10.3 km/h 94 % 0 mm 0 W/m2
05:45 -11.2 °C -11.8 °C 34693 hPa NNE 5.1 km/h 12.9 km/h 93 % 0 mm 0 W/m2
05:50 -11.2 °C -11.8 °C 34693 hPa NNE 2.6 km/h 12.9 km/h 93 % 0 mm 0 W/m2
05:55 -11.2 °C -11.8 °C 34693 hPa NNE 10.3 km/h 12.9 km/h 93 % 0 mm 0 W/m2
06:05 -11.2 °C -11.8 °C 34693 hPa Calm   10.3 km/h 93 % 0 mm 0 W/m2
06:10 -11.2 °C -11.8 °C 34693 hPa Calm   5.1 km/h 93 % 0 mm 0 W/m2
06:15 -11.3 °C -11.8 °C 34693 hPa Calm   7.7 km/h 94 % 0 mm 0 W/m2
06:20 -11.3 °C -11.8 °C 34693 hPa Calm   7.7 km/h 94 % 0 mm 0 W/m2
06:25 -11.3 °C -11.9 °C 34693 hPa Calm   5.1 km/h 94 % 0 mm 0 W/m2
06:30 -11.5 °C -12.1 °C 34693 hPa Calm   5.1 km/h 94 % 0 mm 5 W/m2
06:35 -11.6 °C -12.1 °C 34693 hPa Calm   5.1 km/h 94 % 0 mm 7 W/m2
06:40 -11.6 °C -12.1 °C 34693 hPa Calm   5.1 km/h 94 % 0 mm 11 W/m2
06:50 -11.6 °C -12 °C 34693 hPa Calm   5.1 km/h 95 % 0 mm 16 W/m2
06:55 -11.6 °C -12 °C 34693 hPa Calm   5.1 km/h 95 % 0 mm 19 W/m2
07:00 -11.6 °C -11.9 °C 34693 hPa Calm   7.7 km/h 95 % 0 mm 23 W/m2
07:05 -11.5 °C -11.9 °C 34693 hPa Calm   7.7 km/h 95 % 0 mm 26 W/m2
07:10 -11.3 °C -11.8 °C 34693 hPa Calm   10.3 km/h 95 % 0 mm 30 W/m2
07:15 -11.3 °C -11.8 °C 34703.1 hPa Calm   10.3 km/h 95 % 0 mm 33 W/m2
07:20 -11.2 °C -11.7 °C 34703.1 hPa NNE 5.1 km/h 12.9 km/h 95 % 0 mm 37 W/m2
07:25 -11.1 °C -11.5 °C 34703.1 hPa Calm   15.6 km/h 95 % 0 mm 42 W/m2
07:35 -10.8 °C -11.3 °C 34703.1 hPa NNE 2.6 km/h 12.9 km/h 95 % 0 mm 47 W/m2
07:40 -10.7 °C -11.2 °C 34703.1 hPa NE 2.6 km/h 12.9 km/h 95 % 0 mm 49 W/m2
07:45 -10.6 °C -11.2 °C 34703.1 hPa NE 2.6 km/h 10.3 km/h 94 % 0 mm 53 W/m2
07:50 -10.5 °C -11.1 °C 34703.1 hPa Calm   10.3 km/h 94 % 0 mm 58 W/m2
07:55 -10.4 °C -11 °C 34703.1 hPa NE 5.1 km/h 10.3 km/h 93 % 0 mm 65 W/m2
08:00 -10.3 °C -10.9 °C 34703.1 hPa North 7.7 km/h 12.9 km/h 93 % 0 mm 67 W/m2
08:05 -10.2 °C -10.8 °C 34703.1 hPa Calm   12.9 km/h 93 % 0 mm 95 W/m2
08:10 -10.1 °C -10.8 °C 34703.1 hPa Calm   12.9 km/h 92 % 0 mm 223 W/m2
08:20 -9.7 °C -10.6 °C 34703.1 hPa ENE 2.6 km/h 18.2 km/h 91 % 0 mm 243 W/m2
08:25 -9.6 °C -10.5 °C 34703.1 hPa NE 10.3 km/h 18.2 km/h 90 % 0 mm 257 W/m2
08:30 -9.5 °C -10.5 °C 34703.1 hPa ENE 2.6 km/h 18.2 km/h 89 % 0 mm 271 W/m2
08:35 -9.4 °C -10.5 °C 34716.7 hPa NE 2.6 km/h 18.2 km/h 88 % 0 mm 281 W/m2
08:40 -9.2 °C -10.4 °C 34703.1 hPa East 2.6 km/h 15.6 km/h 87 % 0 mm 294 W/m2
08:45 -9.1 °C -10.4 °C 34703.1 hPa NE 10.3 km/h 20.8 km/h 86 % 0 mm 306 W/m2
08:50 -8.9 °C -10.3 °C 34716.7 hPa ENE 7.7 km/h 20.8 km/h 85 % 0 mm 320 W/m2
08:55 -8.8 °C -10.2 °C 34716.7 hPa ENE 12.9 km/h 20.8 km/h 85 % 0 mm 334 W/m2
09:05 -8.7 °C -10.3 °C 34716.7 hPa NNE 7.7 km/h 20.8 km/h 83 % 0 mm 362 W/m2
09:10 -8.5 °C -10.3 °C 34716.7 hPa ENE 10.3 km/h 20.8 km/h 81 % 0 mm 378 W/m2
09:15 -8.4 °C -10.1 °C 34716.7 hPa NE 7.7 km/h 20.8 km/h 82 % 0 mm 392 W/m2
09:20 -8.3 °C -10.2 °C 34716.7 hPa ENE 10.3 km/h 18.2 km/h 80 % 0 mm 404 W/m2
09:25 -8.2 °C -10.3 °C 34716.7 hPa NNE 5.1 km/h 18.2 km/h 79 % 0 mm 417 W/m2
09:30 -8 °C -10.1 °C 34716.7 hPa East 2.6 km/h 18.2 km/h 79 % 0 mm 432 W/m2
09:35 -7.9 °C -10.1 °C 34716.7 hPa ENE 10.3 km/h 23.3 km/h 78 % 0 mm 441 W/m2
09:40 -7.8 °C -9.9 °C 34716.7 hPa ENE 7.7 km/h 23.3 km/h 78 % 0 mm 462 W/m2
09:45 -7.7 °C -10.2 °C 34716.7 hPa ENE 10.3 km/h 20.8 km/h 75 % 0 mm 475 W/m2
09:50 -7.7 °C -10.3 °C 34716.7 hPa East 5.1 km/h 20.8 km/h 74 % 0 mm 487 W/m2
09:55 -7.7 °C -10.1 °C 34716.7 hPa SE 5.1 km/h 20.8 km/h 76 % 0 mm 510 W/m2
10:00 -7.6 °C -10.1 °C 34716.7 hPa NE 2.6 km/h 18.2 km/h 75 % 0 mm 527 W/m2
10:05 -7.6 °C -10.2 °C 34716.7 hPa Calm   18.2 km/h 74 % 0 mm 541 W/m2
10:10 -7.2 °C -9.9 °C 34716.7 hPa East 5.1 km/h 20.8 km/h 73 % 0 mm 555 W/m2
10:15 -7.2 °C -10.1 °C 34716.7 hPa ENE 5.1 km/h 20.8 km/h 72 % 0 mm 561 W/m2
10:20 -7.2 °C -10.1 °C 34716.7 hPa Calm   18.2 km/h 72 % 0 mm 575 W/m2
10:25 -7.1 °C -10.3 °C 34716.7 hPa ESE 12.9 km/h 18.2 km/h 69 % 0 mm 578 W/m2
10:35 -7 °C -10.4 °C 34716.7 hPa Calm   18.2 km/h 68 % 0 mm 605 W/m2
10:40 -6.9 °C -10.1 °C 34716.7 hPa ENE 12.9 km/h 12.9 km/h 70 % 0 mm 621 W/m2
10:45 -6.8 °C -10.2 °C 34716.7 hPa East 5.1 km/h 20.8 km/h 68 % 0 mm 621 W/m2
10:50 -7 °C -10 °C 34716.7 hPa ENE 2.6 km/h 20.8 km/h 71 % 0 mm 642 W/m2
10:55 -6.5 °C -9.7 °C 34716.7 hPa ENE 5.1 km/h 10.3 km/h 69 % 0 mm 654 W/m2
11:00 -6.5 °C -10.2 °C 34716.7 hPa North 5.1 km/h 15.6 km/h 66 % 0 mm 656 W/m2
11:05 -6.3 °C -9.8 °C 34716.7 hPa ENE 2.6 km/h 18.2 km/h 67 % 0 mm 673 W/m2
11:10 -6.3 °C -10.2 °C 34716.7 hPa NE 10.3 km/h 20.8 km/h 64 % 0 mm 686 W/m2
11:20 -5.9 °C -9.9 °C 34716.7 hPa NNW 7.7 km/h 20.8 km/h 64 % 0 mm 700 W/m2
11:25 -6.2 °C -10.1 °C 34716.7 hPa SSW 7.7 km/h 20.8 km/h 64 % 0 mm 708 W/m2
11:30 -6 °C -10.2 °C 34716.7 hPa ESE 5.1 km/h 10.3 km/h 62 % 0 mm 719 W/m2
11:35 -5.7 °C -9.9 °C 34716.7 hPa ENE 10.3 km/h 12.9 km/h 62 % 0 mm 715 W/m2
11:40 -5.6 °C -10.1 °C 34716.7 hPa NE 5.1 km/h 12.9 km/h 60 % 0 mm 742 W/m2
11:45 -5.6 °C -10.1 °C 34716.7 hPa NNE 5.1 km/h 25.9 km/h 60 % 0 mm 749 W/m2
11:50 -5.4 °C -10.1 °C 34716.7 hPa ENE 5.1 km/h 25.9 km/h 59 % 0 mm 749 W/m2
11:55 -5.4 °C -10.2 °C 34716.7 hPa North 15.6 km/h 20.8 km/h 58 % 0 mm 763 W/m2
12:05 -5.1 °C -10.2 °C 34716.7 hPa ENE 10.3 km/h 23.3 km/h 56 % 0 mm 777 W/m2
12:10 -5.2 °C -10.3 °C 34703.1 hPa Calm   23.3 km/h 56 % 0 mm 795 W/m2
12:15 -5.3 °C -10.3 °C 34703.1 hPa ENE 2.6 km/h 20.8 km/h 57 % 0 mm 796 W/m2
12:20 -4.9 °C -10.2 °C 34703.1 hPa ESE 2.6 km/h 15.6 km/h 55 % 0 mm 803 W/m2
12:25 -5.4 °C -10.3 °C 34703.1 hPa Calm   10.3 km/h 57 % 0 mm 809 W/m2
12:30 -4.8 °C -9.9 °C 34716.7 hPa North 7.7 km/h 18.2 km/h 56 % 0 mm 814 W/m2
12:35 -4.6 °C -9.9 °C 34716.7 hPa WNW 7.7 km/h 20.8 km/h 55 % 0 mm 823 W/m2
12:40 -4.4 °C -10.1 °C 34703.1 hPa West 5.1 km/h 20.8 km/h 53 % 0 mm 831 W/m2
12:50 -4 °C -10.4 °C 34716.7 hPa NW 5.1 km/h 25.9 km/h 49 % 0 mm 824 W/m2
12:55 -4.4 °C -10.2 °C 34716.7 hPa North 15.6 km/h 20.8 km/h 52 % 0 mm 853 W/m2
13:00 -3.9 °C -9.9 °C 34716.7 hPa NNW 18.2 km/h 25.9 km/h 51 % 0 mm 854 W/m2
13:05 -4.3 °C -9.8 °C 34703.1 hPa NNE 15.6 km/h 25.9 km/h 54 % 0 mm 860 W/m2
13:10 -4.1 °C -9.9 °C 34716.7 hPa NNW 7.7 km/h 23.3 km/h 52 % 0 mm 861 W/m2
13:15 -4.1 °C -10.5 °C 34716.7 hPa North 2.6 km/h 28.5 km/h 49 % 0 mm 870 W/m2
13:20 -4.2 °C -10.2 °C 34703.1 hPa ENE 20.8 km/h 28.5 km/h 51 % 0 mm 868 W/m2
13:25 -4.1 °C -10.7 °C 34703.1 hPa Calm   23.3 km/h 48 % 0 mm 875 W/m2
13:35 -4.1 °C -9 °C 34703.1 hPa NW 18.2 km/h 25.9 km/h 58 % 0 mm 874 W/m2
13:40 -4 °C -9.2 °C 34703.1 hPa West 10.3 km/h 25.9 km/h 56 % 0 mm 875 W/m2
13:45 -4.3 °C -9.3 °C 34703.1 hPa West 18.2 km/h 25.9 km/h 57 % 0 mm 877 W/m2
13:55 -4.9 °C -9.5 °C 34716.7 hPa NW 25.9 km/h 36.2 km/h 60 % 0 mm 868 W/m2
14:00 -4.9 °C -9.4 °C 34703.1 hPa WNW 18.2 km/h 33.6 km/h 61 % 0 mm 879 W/m2
14:05 -5.1 °C -9.6 °C 34703.1 hPa West 12.9 km/h 31.1 km/h 60 % 0 mm 881 W/m2
14:10 -4.8 °C -9.3 °C 34703.1 hPa WSW 12.9 km/h 31.1 km/h 60 % 0 mm 884 W/m2
14:20 -4.6 °C -8.9 °C 34703.1 hPa West 23.3 km/h 31.1 km/h 62 % 0 mm 838 W/m2
14:25 -5.2 °C -9.2 °C 34703.1 hPa WNW 20.8 km/h 28.5 km/h 64 % 0 mm 814 W/m2
14:30 -5.4 °C -9.2 °C 34703.1 hPa West 25.9 km/h 33.6 km/h 65 % 0 mm 840 W/m2
14:40 -5.5 °C -9.1 °C 34703.1 hPa West 7.7 km/h 38.8 km/h 67 % 0 mm 875 W/m2
14:45 -5.2 °C -8.8 °C 34703.1 hPa West 20.8 km/h 36.2 km/h 67 % 0 mm 879 W/m2
14:50 -4.9 °C -8.5 °C 34703.1 hPa West 10.3 km/h 25.9 km/h 67 % 0 mm 854 W/m2
14:55 -5 °C -9 °C 34703.1 hPa WNW 20.8 km/h 36.2 km/h 64 % 0 mm 860 W/m2
15:05 -4.9 °C -8.6 °C 34703.1 hPa WNW 5.1 km/h 36.2 km/h 67 % 0 mm 840 W/m2
15:10 -5.4 °C -9.2 °C 34703.1 hPa WNW 18.2 km/h 38.8 km/h 65 % 0 mm 854 W/m2
15:15 -5.5 °C -8.8 °C 34703.1 hPa WNW 7.7 km/h 38.8 km/h 69 % 0 mm 823 W/m2
15:20 -4.9 °C -8.8 °C 34703.1 hPa NW 15.6 km/h 28.5 km/h 65 % 0 mm 831 W/m2
15:25 -5.1 °C -8.9 °C 34693 hPa WNW 10.3 km/h 33.6 km/h 65 % 0 mm 824 W/m2
15:30 -5.2 °C -9.1 °C 34693 hPa WNW 20.8 km/h 33.6 km/h 64 % 0 mm 835 W/m2
15:35 -5.1 °C -9.1 °C 34693 hPa West 12.9 km/h 36.2 km/h 64 % 0 mm 821 W/m2
15:40 -4.9 °C -9.1 °C 34693 hPa NW 15.6 km/h 36.2 km/h 63 % 0 mm 805 W/m2
15:50 -4.6 °C -8.8 °C 34693 hPa WNW 25.9 km/h 33.6 km/h 63 % 0 mm 775 W/m2
15:55 -4.8 °C -9.1 °C 34693 hPa West 20.8 km/h 38.8 km/h 62 % 0 mm 802 W/m2
16:00 -4.9 °C -9.2 °C 34693 hPa WNW 15.6 km/h 38.8 km/h 62 % 0 mm 791 W/m2
16:05 -4.6 °C -8.6 °C 34693 hPa West 7.7 km/h 33.6 km/h 64 % 0 mm 784 W/m2
16:10 -4.8 °C -8.9 °C 34693 hPa West 23.3 km/h 33.6 km/h 63 % 0 mm 747 W/m2
16:15 -5.1 °C -9 °C 34693 hPa West 25.9 km/h 33.6 km/h 64 % 0 mm 780 W/m2
16:20 -4.9 °C -8.9 °C 34693 hPa WSW 7.7 km/h 36.2 km/h 64 % 0 mm 773 W/m2
16:25 -4.9 °C -8.7 °C 34682.8 hPa WSW 15.6 km/h 41.4 km/h 66 % 0 mm 763 W/m2
16:30 -4.8 °C -8.8 °C 34682.8 hPa West 7.7 km/h 41.4 km/h 64 % 0 mm 751 W/m2
16:40 -4 °C -8.6 °C 34682.8 hPa NW 10.3 km/h 31.1 km/h 60 % 0 mm 689 W/m2
16:45 -4.1 °C -8.6 °C 34682.8 hPa West 7.7 km/h 31.1 km/h 61 % 0 mm 710 W/m2
16:50 -3.9 °C -8.7 °C 34682.8 hPa West 15.6 km/h 23.3 km/h 59 % 0 mm 693 W/m2
16:55 -4.2 °C -8.6 °C 34682.8 hPa NW 15.6 km/h 23.3 km/h 61 % 0 mm 686 W/m2
17:00 -4.3 °C -8.4 °C 34682.8 hPa WNW 18.2 km/h 25.9 km/h 63 % 0 mm 680 W/m2
17:05 -4.1 °C -8.4 °C 34682.8 hPa West 10.3 km/h 25.9 km/h 62 % 0 mm 664 W/m2
17:10 -4.3 °C -8.5 °C 34682.8 hPa WNW 25.9 km/h 33.6 km/h 63 % 0 mm 673 W/m2
17:20 -4.2 °C -8.7 °C 34682.8 hPa West 18.2 km/h 25.9 km/h 61 % 0 mm 647 W/m2
17:25 -4.4 °C -8.8 °C 34682.8 hPa WNW 15.6 km/h 36.2 km/h 61 % 0 mm 636 W/m2
17:30 -4.7 °C -8.8 °C 34682.8 hPa WNW 15.6 km/h 36.2 km/h 63 % 0 mm 621 W/m2
17:35 -4.6 °C -8.6 °C 34682.8 hPa West 20.8 km/h 36.2 km/h 64 % 0 mm 613 W/m2
17:40 -4.6 °C -8.3 °C 34682.8 hPa WNW 5.1 km/h 36.2 km/h 66 % 0 mm 599 W/m2
17:45 -4.4 °C -8.6 °C 34669.3 hPa West 18.2 km/h 31.1 km/h 63 % 0 mm 585 W/m2
17:50 -4.8 °C -8.7 °C 34682.8 hPa SW 10.3 km/h 33.6 km/h 65 % 0 mm 570 W/m2
17:55 -5.2 °C -8.8 °C 34669.3 hPa West 7.7 km/h 41.4 km/h 67 % 0 mm 559 W/m2
18:05 -5.3 °C -8.9 °C 34669.3 hPa West 12.9 km/h 33.6 km/h 67 % 0 mm 531 W/m2
18:10 -5.2 °C -8.7 °C 34669.3 hPa SW 12.9 km/h 33.6 km/h 68 % 0 mm 517 W/m2
18:15 -4.9 °C -8.7 °C 34669.3 hPa WNW 5.1 km/h 31.1 km/h 66 % 0 mm 508 W/m2
18:20 -5.2 °C -8.9 °C 34669.3 hPa WSW 10.3 km/h 33.6 km/h 66 % 0 mm 499 W/m2
18:25 -5.4 °C -8.9 °C 34669.3 hPa SW 15.6 km/h 38.8 km/h 68 % 0 mm 485 W/m2
18:30 -5.3 °C -8.7 °C 34669.3 hPa West 15.6 km/h 38.8 km/h 69 % 0 mm 471 W/m2
18:35 -5.1 °C -8.6 °C 34669.3 hPa WSW 23.3 km/h 38.8 km/h 67 % 0 mm 457 W/m2
18:40 -5.5 °C -8.8 °C 34659.1 hPa West 10.3 km/h 33.6 km/h 69 % 0 mm 448 W/m2
18:45 -5.6 °C -8.9 °C 34669.3 hPa WNW 28.5 km/h 36.2 km/h 69 % 0 mm 434 W/m2
18:50 -5.7 °C -8.8 °C 34669.3 hPa SSW 12.9 km/h 36.2 km/h 70 % 0 mm 420 W/m2
18:55 -5.5 °C -8.7 °C 34659.1 hPa WNW 5.1 km/h 36.2 km/h 70 % 0 mm 401 W/m2
19:00 -5.3 °C -8.7 °C 34659.1 hPa West 18.2 km/h 33.6 km/h 68 % 0 mm 380 W/m2
19:05 -5.2 °C -8.8 °C 34659.1 hPa WSW 12.9 km/h 28.5 km/h 67 % 0 mm 366 W/m2
19:10 -5.2 °C -8.7 °C 34659.1 hPa West 12.9 km/h 28.5 km/h 68 % 0 mm 343 W/m2
19:15 -5.4 °C -8.7 °C 34659.1 hPa WSW 12.9 km/h 28.5 km/h 69 % 0 mm 348 W/m2
19:20 -5.1 °C -8.4 °C 34659.1 hPa WSW 18.2 km/h 25.9 km/h 69 % 0 mm 334 W/m2
19:25 -4.9 °C -8.7 °C 34659.1 hPa West 15.6 km/h 25.9 km/h 66 % 0 mm 315 W/m2
19:35 -5.1 °C -8.7 °C 34659.1 hPa WSW 10.3 km/h 23.3 km/h 66 % 0 mm 279 W/m2
19:40 -5 °C -8.6 °C 34659.1 hPa Calm   18.2 km/h 67 % 0 mm 269 W/m2
19:45 -5 °C -8.6 °C 34659.1 hPa West 10.3 km/h 18.2 km/h 67 % 0 mm 255 W/m2
19:50 -5.1 °C -8.5 °C 34659.1 hPa West 12.9 km/h 18.2 km/h 68 % 0 mm 239 W/m2
19:55 -5.1 °C -8.6 °C 34659.1 hPa SW 2.6 km/h 20.8 km/h 67 % 0 mm 216 W/m2
20:00 -5.1 °C -8.7 °C 34659.1 hPa West 7.7 km/h 20.8 km/h 67 % 0 mm 193 W/m2
20:05 -5.1 °C -8.7 °C 34659.1 hPa West 7.7 km/h 18.2 km/h 66 % 0 mm 174 W/m2
20:10 -5.1 °C -8.7 °C 34659.1 hPa WNW 5.1 km/h 20.8 km/h 67 % 0 mm 160 W/m2
20:20 -5.4 °C -8.8 °C 34659.1 hPa SW 12.9 km/h 20.8 km/h 68 % 0 mm 146 W/m2
20:25 -5.4 °C -8.9 °C 34659.1 hPa WNW 5.1 km/h 18.2 km/h 67 % 0 mm 137 W/m2
20:30 -5.4 °C -9 °C 34659.1 hPa WNW 7.7 km/h 20.8 km/h 67 % 0 mm 116 W/m2
20:40 -5.6 °C -9.2 °C 34659.1 hPa WNW 7.7 km/h 23.3 km/h 67 % 0 mm 70 W/m2
20:45 -5.7 °C -9.1 °C 34659.1 hPa WSW 10.3 km/h 23.3 km/h 68 % 0 mm 49 W/m2
20:50 -5.7 °C -8.9 °C 34659.1 hPa West 7.7 km/h 18.2 km/h 70 % 0 mm 37 W/m2
20:55 -5.9 °C -8.9 °C 34659.1 hPa West 5.1 km/h 20.8 km/h 71 % 0 mm 35 W/m2
21:05 -6.1 °C -9.5 °C 34659.1 hPa WNW 10.3 km/h 20.8 km/h 68 % 0 mm 32 W/m2
21:10 -6.2 °C -9.3 °C 34659.1 hPa West 7.7 km/h 20.8 km/h 70 % 0 mm 30 W/m2
21:15 -6.2 °C -9.4 °C 34659.1 hPa NW 12.9 km/h 18.2 km/h 70 % 0 mm 28 W/m2
21:20 -6.3 °C -9.5 °C 34659.1 hPa WNW 10.3 km/h 15.6 km/h 70 % 0 mm 23 W/m2
21:25 -6.4 °C -9.6 °C 34659.1 hPa WNW 2.6 km/h 12.9 km/h 70 % 0 mm 21 W/m2
21:30 -6.5 °C -9.6 °C 34669.3 hPa WNW 5.1 km/h 15.6 km/h 71 % 0 mm 19 W/m2
21:35 -6.6 °C -9.6 °C 34669.3 hPa NW 2.6 km/h 20.8 km/h 71 % 0 mm 18 W/m2
21:40 -6.7 °C -9.7 °C 34669.3 hPa WNW 7.7 km/h 20.8 km/h 71 % 0 mm 14 W/m2
21:50 -6.9 °C -9.7 °C 34669.3 hPa WNW 5.1 km/h 15.6 km/h 73 % 0 mm 9 W/m2
21:55 -7 °C -9.6 °C 34669.3 hPa WNW 12.9 km/h 15.6 km/h 74 % 0 mm 5 W/m2
22:00 -7.1 °C -9.7 °C 34669.3 hPa WNW 7.7 km/h 12.9 km/h 74 % 0 mm 5 W/m2
22:05 -7.3 °C -9.7 °C 34669.3 hPa WNW 7.7 km/h 12.9 km/h 76 % 0 mm 0 W/m2
22:15 -7.6 °C -9.6 °C 34669.3 hPa Calm   10.3 km/h 79 % 0 mm 0 W/m2
22:20 -7.7 °C -9.7 °C 34682.8 hPa WNW 7.7 km/h 12.9 km/h 80 % 0 mm 0 W/m2
22:25 -7.9 °C -9.6 °C 34682.8 hPa NW 10.3 km/h 12.9 km/h 82 % 0 mm 0 W/m2
22:35 -8.1 °C -9.8 °C 34682.8 hPa WNW 7.7 km/h 20.8 km/h 82 % 0 mm 0 W/m2
22:40 -8 °C -9.9 °C 34682.8 hPa Calm   20.8 km/h 80 % 0 mm 0 W/m2
22:45 -8 °C -9.9 °C 34682.8 hPa NW 2.6 km/h 15.6 km/h 80 % 0 mm 0 W/m2
22:50 -8 °C -10.1 °C 34682.8 hPa NW 7.7 km/h 12.9 km/h 79 % 0 mm 0 W/m2
22:55 -8.1 °C -10.1 °C 34682.8 hPa WNW 2.6 km/h 12.9 km/h 79 % 0 mm 0 W/m2
23:00 -8.2 °C -10.1 °C 34682.8 hPa Calm   7.7 km/h 81 % 0 mm 0 W/m2
23:05 -8.4 °C -10.1 °C 34682.8 hPa WNW 2.6 km/h 10.3 km/h 82 % 0 mm 0 W/m2
23:10 -8.4 °C -10.1 °C 34682.8 hPa WNW 5.1 km/h 10.3 km/h 83 % 0 mm 0 W/m2
23:20 -8.6 °C -9.9 °C 34682.8 hPa NNW 5.1 km/h 15.6 km/h 85 % 0 mm 0 W/m2
23:25 -8.7 °C -10.1 °C 34693 hPa NE 15.6 km/h 15.6 km/h 85 % 0 mm 0 W/m2
23:30 -8.5 °C -9.8 °C 34693 hPa Calm   23.3 km/h 86 % 0 mm 0 W/m2
23:35 -8.4 °C -9.8 °C 34693 hPa Calm   23.3 km/h 85 % 0 mm 0 W/m2
23:40 -8.3 °C -9.6 °C 34682.8 hPa Calm   15.6 km/h 86 % 0 mm 0 W/m2
23:45 -8.3 °C -9.6 °C 34682.8 hPa Calm   15.6 km/h 86 % 0 mm 0 W/m2
23:50 -8.2 °C -9.6 °C 34682.8 hPa Calm   15.6 km/h 86 % 0 mm 0 W/m2
23:55 -8.3 °C -9.6 °C 34693 hPa NW 7.7 km/h 12.9 km/h 87 % 0 mm 0 W/m2
Avec l'autorisation de Weather Underground - 1.5 mb